Time;durP1;ratioP1;P1;durP2;ratioP2;P2;SDS_P1;SDS_P2;PMS_P1;PMS_P2;Temp;Humidity;BMP_temperature;BMP_pressure;BME280_temperature;BME280_humidity;BME280_pressure;Samples;Min_cycle;Max_cycle;Signal;HPM_P1;HPM_P2
2022/12/03 00:00:24;;;;;;;82.33;37.23;;;;;;;-0.52;76.49;101261.55;2185231;81;29263;-63
2022/12/03 00:03:28;;;;;;;82.75;36.10;;;;;;;-0.53;76.47;101265.05;2184224;80;27743;-63
2022/12/03 00:06:29;;;;;;;72.05;34.50;;;;;;;-0.56;76.46;101259.73;2184557;81;33045;-62
2022/12/03 00:09:30;;;;;;;69.20;34.08;;;;;;;-0.52;76.57;101261.96;2184554;81;30083;-61
2022/12/03 00:12:32;;;;;;;90.97;40.08;;;;;;;-0.52;76.62;101256.70;2184731;81;27628;-61
2022/12/03 00:15:33;;;;;;;103.58;44.13;;;;;;;-0.53;76.55;101258.46;2184563;81;29854;-61
2022/12/03 00:18:34;;;;;;;83.30;38.83;;;;;;;-0.50;76.66;101254.97;2184922;81;31026;-62
2022/12/03 00:21:35;;;;;;;70.60;35.88;;;;;;;-0.48;76.67;101252.80;2187027;81;32984;-61
2022/12/03 00:24:37;;;;;;;76.60;36.30;;;;;;;-0.45;76.62;101254.60;2187176;81;30505;-61
2022/12/03 00:27:38;;;;;;;94.45;42.98;;;;;;;-0.40;76.68;101253.33;2187122;81;27747;-64
2022/12/03 00:30:39;;;;;;;87.10;39.88;;;;;;;-0.38;76.61;101260.81;2186750;81;28739;-62
2022/12/03 00:33:40;;;;;;;77.05;33.85;;;;;;;-0.38;76.54;101253.78;2187034;81;31030;-64
2022/12/03 00:36:42;;;;;;;80.97;36.58;;;;;;;-0.38;76.54;101255.10;2186939;81;32928;-62
2022/12/03 00:39:43;;;;;;;77.60;34.80;;;;;;;-0.40;76.54;101248.94;2186853;81;30136;-62
2022/12/03 00:42:44;;;;;;;79.85;35.70;;;;;;;-0.42;76.57;101244.52;2187013;81;27744;-64
2022/12/03 00:45:45;;;;;;;88.20;40.52;;;;;;;-0.41;76.75;101252.42;2186979;81;28626;-62
2022/12/03 00:48:46;;;;;;;78.17;35.73;;;;;;;-0.40;76.68;101252.88;2187056;81;31041;-64
2022/12/03 00:51:47;;;;;;;77.47;35.65;;;;;;;-0.39;76.69;101252.02;2186914;81;32947;-65
2022/12/03 00:54:48;;;;;;;74.82;35.60;;;;;;;-0.40;76.65;101246.30;2186920;81;30374;-65
2022/12/03 00:57:50;;;;;;;78.42;37.05;;;;;;;-0.41;76.67;101243.66;2199786;80;27697;-64
2022/12/03 01:00:51;;;;;;;121.55;46.37;;;;;;;-0.39;76.81;101238.85;2184248;81;29436;-62
2022/12/03 01:03:52;;;;;;;144.75;51.83;;;;;;;-0.39;76.78;101237.98;2187050;81;31501;-62
2022/12/03 01:06:53;;;;;;;96.02;39.50;;;;;;;-0.37;76.87;101243.70;2155343;81;32980;-66
2022/12/03 01:09:55;;;;;;;80.87;35.85;;;;;;;-0.36;76.90;101239.34;2130192;83;29316;-67
2022/12/03 01:12:56;;;;;;;84.25;37.00;;;;;;;-0.39;76.87;101240.17;2081830;85;27648;-67
2022/12/03 01:15:57;;;;;;;76.77;35.13;;;;;;;-0.39;76.94;101236.67;2081299;85;28674;-66
2022/12/03 01:19:02;;;;;;;80.35;35.13;;;;;;;-0.39;76.95;101234.91;2081013;85;31079;-66
2022/12/03 01:22:04;;;;;;;80.00;34.95;;;;;;;-0.45;76.91;101236.17;2073096;84;33085;-65
2022/12/03 01:25:06;;;;;;;70.80;34.58;;;;;;;-0.47;76.95;101232.64;2098942;84;29764;-65
2022/12/03 01:28:07;;;;;;;76.65;35.03;;;;;;;-0.46;77.02;101235.72;2101044;84;27735;-63
2022/12/03 01:34:29;;;;;;;76.20;34.53;;;;;;;-0.44;76.99;101237.05;2153073;82;31051;-65
2022/12/03 01:37:34;;;;;;;75.42;34.00;;;;;;;-0.44;76.99;101233.09;2132326;82;32385;-65
2022/12/03 01:40:36;;;;;;;74.70;35.60;;;;;;;-0.41;76.95;101236.63;2120173;84;29688;-63
2022/12/03 01:43:37;;;;;;;70.12;33.85;;;;;;;-0.37;77.06;101237.13;2120330;83;28213;-65
2022/12/03 01:46:40;;;;;;;76.25;33.85;;;;;;;-0.34;76.96;101236.30;2120194;84;29518;-65
2022/12/03 01:49:53;;;;;;;71.95;33.58;;;;;;;-0.31;76.90;101230.62;2097731;84;30473;-65
2022/12/03 01:52:57;;;;;;;68.50;32.80;;;;;;;-0.27;76.92;101233.29;2120207;83;32946;-65
2022/12/03 01:55:58;;;;;;;64.92;31.60;;;;;;;-0.26;76.81;101234.61;2120325;83;29302;-65
2022/12/03 01:59:00;;;;;;;68.05;31.97;;;;;;;-0.27;76.72;101232.84;2123850;82;27717;-64
2022/12/03 02:02:27;;;;;;;67.62;29.92;;;;;;;-0.31;76.69;101223.13;2139576;83;28676;-64
2022/12/03 02:05:32;;;;;;;66.12;31.68;;;;;;;-0.33;76.69;101223.58;2139580;83;31150;-63
2022/12/03 02:08:38;;;;;;;69.20;32.42;;;;;;;-0.35;76.73;101225.31;2139496;83;33824;-63
2022/12/03 02:11:43;;;;;;;70.95;32.00;;;;;;;-0.38;76.81;101228.77;2139699;83;29379;-63
2022/12/03 02:14:45;;;;;;;;;;;;;;;-0.38;76.82;101220.01;2142326;83;27814;-64
2022/12/03 02:17:46;;;;;;;60.90;30.02;;;;;;;-0.38;76.84;101227.91;2139650;82;28631;-63
2022/12/03 02:21:02;;;;;;;64.77;30.45;;;;;;;-0.38;76.95;101222.64;2149192;82;31025;-64
2022/12/03 02:24:35;;;;;;;67.87;30.82;;;;;;;-0.40;76.93;101222.61;2114865;84;33007;-63
2022/12/03 02:27:39;;;;;;;63.40;28.12;;;;;;;-0.40;76.95;101221.73;2150583;82;30282;-64
2022/12/03 02:30:41;;;;;;;62.30;31.37;;;;;;;-0.40;77.05;101220.42;2152287;82;27703;-63
2022/12/03 02:33:42;;;;;;;67.72;31.60;;;;;;;-0.43;76.92;101224.33;2152502;82;28645;-63
2022/12/03 02:36:43;;;;;;;61.00;29.52;;;;;;;-0.43;77.06;101221.28;2149782;82;31017;-65
2022/12/03 02:39:50;;;;;;;61.90;29.07;;;;;;;-0.42;77.05;101215.16;2149429;82;33826;-64
2022/12/03 02:42:56;;;;;;;66.25;29.90;;;;;;;-0.40;77.09;101217.34;2149789;82;30130;-64
2022/12/03 02:46:00;;;;;;;49.05;26.15;;;;;;;-0.39;77.08;101219.56;2149956;82;28065;-63
2022/12/03 02:49:02;;;;;;;61.53;30.82;;;;;;;-0.40;77.11;101212.08;2171227;81;29702;-64
2022/12/03 02:52:03;;;;;;;62.10;29.80;;;;;;;-0.40;77.11;101213.84;2171506;82;30475;-64
2022/12/03 02:55:07;;;;;;;55.38;28.15;;;;;;;-0.38;77.15;101209.48;2171441;82;32932;-65
2022/12/03 02:58:09;;;;;;;61.88;29.67;;;;;;;-0.38;77.10;101207.72;2171190;82;29166;-65
2022/12/03 03:01:10;;;;;;;71.10;31.87;;;;;;;-0.39;77.17;101203.31;2171716;82;27657;-64
2022/12/03 03:04:12;;;;;;;64.65;31.55;;;;;;;-0.38;77.26;101203.77;2148015;82;29412;-63
2022/12/03 03:07:14;;;;;;;55.78;28.17;;;;;;;-0.35;77.34;101217.41;2168251;82;31070;-64
2022/12/03 03:10:20;;;;;;;59.77;29.10;;;;;;;-0.33;77.35;101213.05;2147669;82;32980;-63
2022/12/03 03:13:21;;;;;;;62.65;29.20;;;;;;;-0.31;77.42;101216.55;2145745;81;29315;-63
2022/12/03 03:16:23;;;;;;;61.85;30.60;;;;;;;-0.34;77.30;101213.47;2094451;84;27686;-65
2022/12/03 03:19:25;;;;;;;66.28;30.23;;;;;;;-0.34;77.42;101216.09;2119728;81;28641;-63
2022/12/03 03:22:35;;;;;;;60.17;29.90;;;;;;;-0.34;77.49;101208.20;2173552;81;31106;-64
2022/12/03 03:25:44;;;;;;;70.20;31.68;;;;;;;-0.33;77.52;101204.70;2174017;81;33677;-64
2022/12/03 03:28:49;;;;;;;61.05;29.18;;;;;;;-0.28;77.70;101210.45;2172721;81;29322;-65
2022/12/03 03:31:50;;;;;;;70.62;33.15;;;;;;;-0.30;77.59;101203.84;2174428;81;27779;-63
2022/12/03 03:34:52;;;;;;;65.50;32.20;;;;;;;-0.29;77.67;101195.52;2174271;81;29407;-65
2022/12/03 03:37:54;;;;;;;67.45;32.75;;;;;;;-0.26;77.67;101202.14;2174299;81;31844;-67
2022/12/03 03:40:56;;;;;;;64.12;30.95;;;;;;;-0.25;77.72;101197.33;2152474;81;33343;-65
2022/12/03 03:43:58;;;;;;;65.87;32.15;;;;;;;-0.26;77.72;101195.56;2174194;81;29347;-65
2022/12/03 03:46:59;;;;;;;70.62;32.40;;;;;;;-0.26;77.74;101189.84;2174002;81;27722;-66
2022/12/03 03:50:01;;;;;;;67.22;30.32;;;;;;;-0.22;77.80;101182.43;2174433;81;28634;-66
2022/12/03 03:53:04;;;;;;;71.45;34.33;;;;;;;-0.21;77.75;101181.98;2174580;81;31011;-65
2022/12/03 03:56:06;;;;;;;62.30;28.92;;;;;;;-0.23;77.76;101178.45;2174320;81;33594;-66
2022/12/03 03:59:08;;;;;;;66.20;30.55;;;;;;;-0.22;77.83;101174.95;2174938;81;30020;-66
2022/12/03 04:02:23;;;;;;;70.60;32.30;;;;;;;-0.21;77.82;101180.25;2174396;81;27676;-66
2022/12/03 04:05:25;;;;;;;71.20;34.18;;;;;;;-0.20;77.85;101188.59;2174523;81;28613;-67
2022/12/03 04:08:27;;;;;;;60.63;29.80;;;;;;;-0.19;77.83;101177.20;2174053;81;30507;-66
2022/12/03 04:14:48;;;;;;;70.47;31.70;;;;;;;-0.25;77.79;101167.91;2174356;81;29423;-63
2022/12/03 04:18:41;;;;;;;70.60;32.20;;;;;;;-0.28;77.82;101163.06;2179249;81;27681;-65
2022/12/03 04:22:38;;;;;;;79.37;35.85;;;;;;;-0.29;77.86;101162.61;2180082;81;28653;-65
2022/12/03 04:23:59;;;;;;;64.25;31.15;;;;;;;-0.29;77.99;101167.88;2106638;84;31326;-66
2022/12/03 04:30:20;;;;;;;75.55;32.78;;;;;;;-0.31;78.14;101173.11;2173882;81;29421;-64
2022/12/03 04:36:41;;;;;;;72.80;31.70;;;;;;;-0.33;78.17;101170.92;2173771;81;28761;-66
2022/12/03 04:39:43;;;;;;;71.53;33.23;;;;;;;-0.34;78.20;101166.53;2173971;81;31009;-66
2022/12/03 04:42:44;;;;;;;68.40;32.23;;;;;;;-0.35;78.27;101164.31;2173889;81;32947;-66
2022/12/03 04:45:45;;;;;;;71.80;33.70;;;;;;;-0.35;78.30;101166.08;2174016;81;29353;-66
2022/12/03 04:48:46;;;;;;;66.80;31.17;;;;;;;-0.33;78.28;101169.61;2169535;81;27621;-67
2022/12/03 04:51:48;;;;;;;73.60;32.45;;;;;;;-0.32;78.27;101172.25;2166657;82;28625;-65
2022/12/03 04:54:49;;;;;;;72.50;34.25;;;;;;;-0.29;78.35;101173.14;2166707;82;31812;-67
2022/12/03 04:57:50;;;;;;;72.10;33.35;;;;;;;-0.27;78.30;101168.33;2166587;82;34061;-65
2022/12/03 05:00:52;;;;;;;67.92;32.48;;;;;;;-0.24;78.36;101171.00;2166641;82;29301;-65
2022/12/03 05:03:53;;;;;;;71.77;31.80;;;;;;;-0.21;78.30;101164.45;2166874;82;28290;-64
2022/12/03 05:06:55;;;;;;;75.60;34.63;;;;;;;-0.21;78.28;101168.81;2166710;82;28625;-65
2022/12/03 05:09:57;;;;;;;60.20;29.45;;;;;;;-0.24;78.24;101165.73;2166710;82;31055;-66
2022/12/03 05:12:58;;;;;;;74.42;33.23;;;;;;;-0.24;78.45;101164.41;2166599;82;32928;-65
2022/12/03 05:15:59;;;;;;;72.42;31.95;;;;;;;-0.23;78.39;101168.81;2166651;82;29314;-67
2022/12/03 05:19:02;;;;;;;69.90;32.93;;;;;;;-0.21;78.43;101167.50;2165651;82;27593;-67
2022/12/03 05:22:03;;;;;;;63.05;31.00;;;;;;;-0.19;78.42;101162.72;2166143;82;28631;-66
2022/12/03 05:25:06;;;;;;;69.45;33.78;;;;;;;-0.14;78.42;101163.16;2166620;82;31196;-64
2022/12/03 05:28:07;;;;;;;74.85;34.08;;;;;;;-0.17;78.33;101164.93;2166542;82;32974;-65
2022/12/03 05:31:09;;;;;;;71.17;30.90;;;;;;;-0.14;78.35;101169.33;2166245;82;29240;-65
2022/12/03 05:34:10;;;;;;;69.60;34.03;;;;;;;-0.13;78.35;101171.52;2166608;82;27709;-65
2022/12/03 05:37:11;;;;;;;77.47;34.45;;;;;;;-0.14;78.30;101169.75;2166471;82;28634;-65
2022/12/03 05:40:14;;;;;;;152.10;63.00;;;;;;;-0.13;78.40;101165.83;2166476;82;31005;-65
2022/12/03 05:43:15;;;;;;;134.35;70.47;;;;;;;-0.09;78.43;101166.73;2166525;82;32977;-66
2022/12/03 05:46:16;;;;;;;76.82;36.40;;;;;;;-0.10;78.35;101157.06;2166630;82;29312;-66
2022/12/03 05:49:17;;;;;;;73.72;32.42;;;;;;;-0.08;78.38;101165.41;2166634;81;28462;-65
2022/12/03 05:52:18;;;;;;;72.25;33.30;;;;;;;-0.04;78.42;101169.84;2166616;82;28618;-66
2022/12/03 05:55:20;;;;;;;70.50;31.65;;;;;;;-0.03;78.38;101158.89;2166548;82;31825;-65
2022/12/03 05:58:21;;;;;;;77.42;37.50;;;;;;;-0.04;78.38;101167.20;2141238;82;33707;-66
2022/12/03 06:01:22;;;;;;;77.58;36.38;;;;;;;-0.05;78.39;101164.58;2166585;81;29303;-66
2022/12/03 06:04:23;;;;;;;69.62;32.65;;;;;;;-0.04;78.42;101167.20;2166390;82;27684;-65
2022/12/03 06:07:25;;;;;;;70.10;32.78;;;;;;;-0.05;78.42;101169.84;2166660;82;28606;-65
2022/12/03 06:10:27;;;;;;;65.30;30.97;;;;;;;-0.07;78.39;101168.94;2166513;82;31047;-65
2022/12/03 06:13:28;;;;;;;71.80;34.27;;;;;;;-0.09;78.41;101166.31;2166399;82;32921;-66
2022/12/03 06:16:29;;;;;;;80.87;34.08;;;;;;;-0.07;78.53;101171.12;2166631;82;29304;-66
2022/12/03 06:19:30;;;;;;;71.67;32.10;;;;;;;-0.06;78.54;101164.99;2161164;81;28165;-69
2022/12/03 06:22:31;;;;;;;64.05;31.17;;;;;;;-0.05;78.49;101172.03;2160003;82;29264;-65
2022/12/03 06:25:33;;;;;;;64.37;30.60;;;;;;;-0.05;78.49;101169.84;2160215;82;31094;-67
2022/12/03 06:28:34;;;;;;;63.98;30.65;;;;;;;-0.04;78.51;101174.24;2159887;82;33162;-66
2022/12/03 06:31:35;;;;;;;65.03;30.72;;;;;;;-0.05;78.55;101174.66;2160411;82;29348;-66
2022/12/03 06:34:37;;;;;;;61.90;31.75;;;;;;;-0.04;78.58;101172.47;2160476;82;27700;-66
2022/12/03 06:37:38;;;;;;;61.95;29.37;;;;;;;-0.05;78.56;101168.08;2160325;82;28617;-65
2022/12/03 06:40:39;;;;;;;64.15;30.30;;;;;;;-0.07;78.50;101173.77;2141427;83;31816;-66
2022/12/03 06:43:42;;;;;;;70.17;31.97;;;;;;;-0.09;78.54;101169.36;2143890;82;32912;-65
2022/12/03 06:46:44;;;;;;;62.00;30.40;;;;;;;-0.06;78.72;101164.12;2053898;86;29329;-66
2022/12/03 06:49:45;;;;;;;58.95;29.57;;;;;;;-0.04;78.68;101164.58;2074475;85;27693;-66
2022/12/03 06:52:47;;;;;;;59.08;30.40;;;;;;;-0.02;78.73;101167.23;2074562;85;28781;-67
2022/12/03 06:55:48;;;;;;;61.00;29.57;;;;;;;0.02;78.75;101164.19;2074493;85;31014;-67
2022/12/03 06:58:49;;;;;;;57.65;30.65;;;;;;;0.03;78.60;101169.45;2074394;85;33322;-65
2022/12/03 07:01:50;;;;;;;61.28;29.15;;;;;;;0.03;78.61;101169.91;2074679;85;30099;-66
2022/12/03 07:04:52;;;;;;;57.85;28.27;;;;;;;0.02;78.61;101172.95;2074191;85;27863;-66
2022/12/03 07:07:54;;;;;;;54.23;28.52;;;;;;;0.04;78.63;101166.40;2074678;85;29552;-67
2022/12/03 07:10:55;;;;;;;54.95;28.55;;;;;;;0.04;78.63;101163.31;2074607;85;31129;-67
2022/12/03 07:13:58;;;;;;;59.33;29.82;;;;;;;0.06;78.67;101169.48;2074557;85;33725;-65
2022/12/03 07:16:59;;;;;;;52.17;27.20;;;;;;;0.09;78.77;101168.19;2074536;85;29494;-67
2022/12/03 07:20:01;;;;;;;50.90;27.35;;;;;;;0.11;78.69;101165.55;2074619;85;28261;-66
2022/12/03 07:23:02;;;;;;;54.80;28.30;;;;;;;0.10;78.73;101158.11;2066726;85;28792;-66
2022/12/03 07:26:04;;;;;;;62.43;29.82;;;;;;;0.11;78.67;101161.19;2065595;86;31087;-66
2022/12/03 07:29:05;;;;;;;58.10;28.38;;;;;;;0.15;78.72;101158.13;2065425;86;33163;-67
2022/12/03 07:32:06;;;;;;;54.15;27.62;;;;;;;0.16;78.61;101153.77;2064829;86;29322;-65
2022/12/03 07:35:08;;;;;;;53.28;27.90;;;;;;;0.13;78.54;101152.86;2004720;88;27767;-66
2022/12/03 07:38:13;;;;;;;61.15;28.73;;;;;;;0.14;78.61;101147.14;2053918;86;28690;-66
2022/12/03 07:41:14;;;;;;;55.63;29.20;;;;;;;0.13;78.59;101155.92;2054198;86;30550;-66
2022/12/03 07:44:15;;;;;;;53.58;26.45;;;;;;;0.14;78.65;101162.53;2124710;83;33012;-66
2022/12/03 07:47:17;;;;;;;53.90;28.38;;;;;;;0.16;78.62;101164.30;2117623;84;29318;-65
2022/12/03 07:50:18;;;;;;;57.27;28.75;;;;;;;0.16;78.63;101159.03;2135410;83;28229;-65
2022/12/03 07:53:20;;;;;;;80.90;42.13;;;;;;;0.17;78.62;101160.80;2135898;83;28609;-67
2022/12/03 07:56:21;;;;;;;57.05;29.32;;;;;;;0.18;78.63;101163.84;2135456;83;31059;-67
2022/12/03 07:59:22;;;;;;;54.55;28.83;;;;;;;0.21;78.67;101162.55;2135374;83;33008;-66
2022/12/03 08:02:24;;;;;;;56.70;28.40;;;;;;;0.24;78.75;101163.91;2135033;83;30125;-65
2022/12/03 08:05:25;;;;;;;61.48;31.17;;;;;;;0.25;78.63;101152.05;2132805;83;27682;-67
2022/12/03 08:08:27;;;;;;;54.88;30.32;;;;;;;0.27;78.61;101152.07;2132755;83;28655;-66
2022/12/03 08:11:28;;;;;;;55.33;29.65;;;;;;;0.29;78.61;101152.97;2132545;83;31214;-67
2022/12/03 08:14:29;;;;;;;113.32;59.10;;;;;;;0.32;78.59;101157.36;2132611;83;32934;-66
2022/12/03 08:17:31;;;;;;;59.20;32.93;;;;;;;0.37;78.67;101153.88;2132663;83;30110;-65
2022/12/03 08:20:34;;;;;;;54.48;29.82;;;;;;;0.40;78.59;101147.31;2132775;83;27648;-67
2022/12/03 08:23:35;;;;;;;58.42;30.90;;;;;;;0.41;78.51;101145.13;2122440;83;28657;-66
2022/12/03 08:26:37;;;;;;;63.83;31.00;;;;;;;0.45;78.61;101147.34;2137466;82;32388;-66
2022/12/03 08:29:38;;;;;;;59.40;29.67;;;;;;;0.50;78.54;101156.61;2137113;82;33947;-67
2022/12/03 08:32:39;;;;;;;60.63;31.30;;;;;;;0.51;78.38;101145.16;2145184;82;29447;-67
2022/12/03 08:35:45;;;;;;;59.75;29.35;;;;;;;0.54;78.40;101147.83;2164066;82;27684;-66
2022/12/03 08:38:50;;;;;;;68.52;32.53;;;;;;;0.58;78.37;101145.66;2164016;82;28650;-66
2022/12/03 08:45:39;;;;;;;55.20;29.87;;;;;;;0.61;78.32;101131.18;2163853;82;32995;-65
2022/12/03 08:48:40;;;;;;;60.08;30.27;;;;;;;0.62;78.22;101128.98;2164027;82;29176;-66
2022/12/03 08:51:42;;;;;;;61.55;31.68;;;;;;;0.66;78.38;101125.92;2164195;82;27736;-65
2022/12/03 08:54:51;;;;;;;60.95;30.68;;;;;;;0.71;78.39;101125.52;2164094;82;29534;-65
2022/12/03 08:57:52;;;;;;;57.17;31.45;;;;;;;0.74;78.23;101124.21;2163458;82;31104;-66
2022/12/03 09:01:11;;;;;;;59.75;29.90;;;;;;;0.81;78.33;101126.44;2163701;82;33009;-65
2022/12/03 09:04:25;;;;;;;58.48;31.10;;;;;;;0.85;78.19;101122.49;2162438;82;29326;-65
2022/12/03 09:07:26;;;;;;;57.23;31.45;;;;;;;0.93;78.23;101122.52;2155998;82;27720;-64
2022/12/03 09:10:27;;;;;;;60.70;29.92;;;;;;;0.93;77.86;101120.30;2164157;82;28683;-65
2022/12/03 09:13:28;;;;;;;64.72;32.85;;;;;;;0.89;77.83;101124.27;2164175;82;31046;-65
2022/12/03 09:16:30;;;;;;;62.85;31.65;;;;;;;0.91;77.96;101118.53;2163940;82;33746;-65
2022/12/03 09:19:32;;;;;;;62.38;30.75;;;;;;;0.94;77.99;101123.38;2163394;82;29370;-66
2022/12/03 09:22:33;;;;;;;68.28;32.08;;;;;;;1.00;78.01;101126.92;2162405;82;27664;-66
2022/12/03 09:25:34;;;;;;;63.87;32.50;;;;;;;1.02;77.93;101121.22;2160282;82;28733;-66
2022/12/03 09:28:36;;;;;;;60.33;31.93;;;;;;;1.11;78.05;101117.72;2160403;82;31074;-65
2022/12/03 09:31:37;;;;;;;63.15;32.20;;;;;;;1.14;77.78;101120.38;2160789;81;32937;-65
2022/12/03 09:34:38;;;;;;;57.90;30.60;;;;;;;1.19;77.69;101116.00;2151617;82;30074;-66
2022/12/03 09:37:42;;;;;;;62.62;32.85;;;;;;;1.23;77.59;101111.59;2151522;82;27784;-65
2022/12/03 09:40:42;;;;;;;65.10;32.88;;;;;;;1.28;77.69;101113.81;2184037;81;28807;-67
2022/12/03 09:43:44;;;;;;;63.78;32.98;;;;;;;1.33;77.58;101106.77;2184190;81;31770;-64
2022/12/03 09:46:47;;;;;;;58.95;30.08;;;;;;;1.39;77.46;101108.56;2184339;81;32993;-64
2022/12/03 09:49:48;;;;;;;61.98;32.85;;;;;;;1.43;77.30;101114.72;2183816;81;29397;-66
2022/12/03 09:52:51;;;;;;;61.85;34.10;;;;;;;1.41;77.12;101116.02;2169818;81;27708;-66
2022/12/03 09:59:15;;;;;;;70.78;36.70;;;;;;;1.45;77.21;101115.14;2036512;86;28536;-66
2022/12/03 10:02:27;;;;;;;66.37;36.00;;;;;;;1.53;77.53;101100.63;2054383;86;33141;-65
2022/12/03 10:05:29;;;;;;;62.75;34.15;;;;;;;1.63;77.39;101108.12;2054520;86;29338;-64
2022/12/03 10:08:35;;;;;;;71.20;37.67;;;;;;;1.73;77.18;101120.89;2054237;86;27759;-66
2022/12/03 10:11:42;;;;;;;68.15;36.80;;;;;;;1.76;77.06;101115.16;1988082;89;27824;-66
2022/12/03 10:14:43;;;;;;;66.30;35.23;;;;;;;1.80;77.06;101119.57;1988916;89;32034;-65
2022/12/03 10:17:53;;;;;;;75.20;37.35;;;;;;;1.89;76.96;101122.66;1988860;89;33725;-65
2022/12/03 10:20:55;;;;;;;77.97;37.55;;;;;;;1.93;76.72;101119.55;1989137;88;29433;-66
2022/12/03 10:24:24;;;;;;;75.83;39.55;;;;;;;1.91;76.33;101114.71;2006251;88;27656;-65
2022/12/03 10:27:32;;;;;;;76.85;37.58;;;;;;;1.89;76.52;101113.41;1960212;90;28721;-67
2022/12/03 10:30:34;;;;;;;81.92;39.60;;;;;;;1.93;76.56;101111.20;1960518;90;31841;-64
2022/12/03 10:33:43;;;;;;;71.67;37.42;;;;;;;2.00;76.63;101108.11;1960360;90;33900;-66
2022/12/03 10:36:45;;;;;;;73.37;37.53;;;;;;;2.05;76.30;101107.67;1959751;90;29555;-64
2022/12/03 10:39:59;;;;;;;74.07;38.98;;;;;;;2.07;76.28;101102.38;1962822;90;28344;-65
2022/12/03 10:43:23;;;;;;;71.67;38.02;;;;;;;2.09;76.30;101103.26;1962587;90;28678;-65
2022/12/03 10:46:25;;;;;;;72.40;38.75;;;;;;;2.13;76.31;101093.12;1962844;90;31989;-64
2022/12/03 10:49:33;;;;;;;79.03;40.58;;;;;;;2.19;76.33;101087.81;1962046;90;33680;-66
2022/12/03 10:56:00;;;;;;;77.62;41.63;;;;;;;2.20;75.97;101074.16;1774677;99;27872;-65
2022/12/03 10:59:15;;;;;;;;;;;;;;;;;;;;;
2022/12/03 11:02:26;;;;;;;79.40;39.88;;;;;;;2.24;75.94;101067.54;1698209;104;28416;-66
2022/12/03 11:05:33;;;;;;;77.72;39.60;;;;;;;2.30;75.81;101065.31;1711497;103;28453;-65
2022/12/03 11:08:58;;;;;;;75.12;39.50;;;;;;;2.37;75.85;101066.17;1741793;101;28465;-66
2022/12/03 11:12:34;;;;;;;76.70;36.17;;;;;;;2.37;75.52;101058.23;1730144;101;27858;-67
2022/12/03 11:15:43;;;;;;;76.57;39.65;;;;;;;2.34;75.20;101059.56;1713618;103;27862;-67
2022/12/03 11:37:55;;;;;;;72.87;36.30;;;;;;;2.51;75.71;101048.94;1638632;108;27854;-63
2022/12/03 11:48:46;;;;;;;71.37;37.58;;;;;;;2.69;74.93;101040.92;1604333;108;27875;-63
2022/12/03 11:52:57;;;;;;;71.77;38.85;;;;;;;2.71;75.17;101044.44;1571866;111;29652;-62
2022/12/03 11:56:07;;;;;;;81.90;40.00;;;;;;;2.73;75.22;101030.73;1590605;110;31474;-61
2022/12/03 11:59:13;;;;;;;76.90;38.00;;;;;;;2.84;75.12;101025.39;1619405;108;27806;-62
2022/12/03 12:02:19;;;;;;;66.15;36.33;;;;;;;2.89;74.81;101026.25;1673869;105;28714;-62
2022/12/03 12:05:36;;;;;;;73.35;38.28;;;;;;;2.92;74.71;101024.47;1685397;105;28864;-63
2022/12/03 12:09:02;;;;;;;80.65;41.73;;;;;;;2.94;74.87;101028.86;1753494;98;28544;-63
2022/12/03 12:12:34;;;;;;;;;;;;;;;;;;;;;
2022/12/03 12:15:50;;;;;;;82.82;39.85;;;;;;;2.96;74.37;101026.22;1863931;93;27882;-63
2022/12/03 12:19:18;;;;;;;71.87;37.85;;;;;;;2.95;74.45;101032.41;1819749;94;27825;-62
2022/12/03 12:25:56;;;;;;;80.15;42.95;;;;;;;2.96;74.52;101031.52;1946609;88;30452;-62
2022/12/03 12:29:45;;;;;;;;;;;;;;;;;;;;;
2022/12/03 12:33:34;;;;;;;74.30;39.25;;;;;;;2.94;74.41;101023.56;1972977;87;27827;-63
2022/12/03 12:37:06;;;;;;;87.42;42.70;;;;;;;2.99;74.34;101019.56;1931163;91;27777;-63
2022/12/03 12:43:34;;;;;;;81.57;41.55;;;;;;;3.03;74.13;101001.45;1818904;96;33544;-67
2022/12/03 12:47:04;;;;;;;78.50;40.80;;;;;;;2.98;74.15;101000.17;1750306;100;27841;-63
2022/12/03 12:53:41;;;;;;;;;;;;;;;;;;;;;
2022/12/03 13:12:48;;;;;;;;;;;;;;;;;;;;;
2022/12/03 13:16:37;;;;;;;;;;;;;;;;;;;;;
2022/12/03 13:28:53;;;;;;;112.10;57.90;;;;;;;2.67;74.60;101007.41;2235728;79;28446;-63
2022/12/03 13:32:17;;;;;;;88.60;45.65;;;;;;;2.61;74.63;101007.00;2161400;80;27769;-63
2022/12/03 13:35:38;;;;;;;90.72;44.95;;;;;;;2.61;74.68;101007.00;2083606;83;29142;-63
2022/12/03 13:38:44;;;;;;;88.65;47.15;;;;;;;2.60;74.80;101003.92;2059384;85;32746;-63
2022/12/03 13:45:35;;;;;;;91.97;48.40;;;;;;;2.55;74.79;101003.95;2041925;86;28796;-63
2022/12/03 13:48:43;;;;;;;108.42;55.48;;;;;;;2.53;74.93;101003.53;2020954;87;27838;-64
2022/12/03 13:52:07;;;;;;;97.30;49.55;;;;;;;2.54;74.88;101007.48;2022433;87;27780;-64
2022/12/03 13:55:10;;;;;;;93.95;47.62;;;;;;;2.51;74.95;101006.16;2039014;86;27832;-62
2022/12/03 13:58:15;;;;;;;95.30;50.23;;;;;;;2.51;75.05;100997.36;2021734;86;33865;-61
2022/12/03 14:01:16;;;;;;;97.75;49.93;;;;;;;2.52;75.14;100997.80;2031062;87;29198;-62
2022/12/03 14:04:39;;;;;;;94.17;48.92;;;;;;;2.49;75.08;100997.35;2030252;87;28284;-63
2022/12/03 14:07:44;;;;;;;97.60;49.55;;;;;;;2.45;75.13;100997.39;1892933;93;27761;-63
2022/12/03 14:10:49;;;;;;;104.53;52.58;;;;;;;2.42;75.27;100999.16;1893376;91;32279;-64
2022/12/03 14:17:09;;;;;;;107.03;53.25;;;;;;;2.42;75.38;100993.86;1891868;93;27984;-61
2022/12/03 14:20:15;;;;;;;105.80;54.83;;;;;;;2.37;75.28;100994.78;1874869;94;28145;-62
2022/12/03 14:23:34;;;;;;;95.05;48.23;;;;;;;2.38;75.47;101000.50;1871575;94;28298;-62
2022/12/03 14:26:44;;;;;;;112.28;50.90;;;;;;;2.37;75.36;101001.39;1807229;97;31538;-63
2022/12/03 14:29:55;;;;;;;98.62;49.55;;;;;;;2.31;75.39;100993.50;1716797;102;28504;-62
2022/12/03 14:33:12;;;;;;;103.40;50.08;;;;;;;2.30;75.48;100990.42;1709521;103;27887;-63
2022/12/03 14:55:58;;;;;;;;;;;;;;;;;;;;;
2022/12/03 15:03:19;;;;;;;125.90;54.70;;;;;;;1.99;76.23;100990.08;1606948;108;32494;-62
2022/12/03 15:06:33;;;;;;;127.12;58.50;;;;;;;1.87;76.28;100988.34;1688526;104;28949;-62
2022/12/03 15:09:41;;;;;;;115.15;51.08;;;;;;;1.87;76.38;100997.59;1704326;104;28731;-62
2022/12/03 15:12:44;;;;;;;115.65;54.93;;;;;;;1.82;76.55;101002.03;1696877;104;27795;-62
2022/12/03 15:15:48;;;;;;;167.65;75.30;;;;;;;1.80;76.66;101002.47;1664768;102;28733;-63
2022/12/03 15:18:51;;;;;;;114.52;53.98;;;;;;;1.79;76.65;101005.98;1743976;101;31291;-62
2022/12/03 15:21:54;;;;;;;159.05;80.17;;;;;;;1.80;76.80;101013.90;1777604;95;27996;-62
2022/12/03 15:25:11;;;;;;;126.92;57.43;;;;;;;1.82;76.80;101011.27;1859713;95;29511;-63
2022/12/03 15:31:32;;;;;;;122.02;57.35;;;;;;;1.81;76.86;101013.02;1872862;93;28885;-67
2022/12/03 15:34:40;;;;;;;123.53;57.65;;;;;;;1.81;76.93;101002.91;1854246;94;27829;-65
2022/12/03 15:44:40;;;;;;;130.40;57.55;;;;;;;1.82;76.95;101006.86;1788441;97;28206;-64
2022/12/03 15:47:48;;;;;;;167.40;68.33;;;;;;;1.84;77.05;101002.01;1830476;96;29888;-64
2022/12/03 15:50:53;;;;;;;118.82;56.70;;;;;;;1.85;77.04;101010.37;1826605;96;28379;-63
2022/12/03 15:54:05;;;;;;;119.05;57.80;;;;;;;1.87;77.21;101008.16;1804726;97;28329;-63
2022/12/03 15:57:45;;;;;;;;;;;;;;;;;;;;;
2022/12/03 16:04:47;;;;;;;143.40;65.37;;;;;;;1.90;77.19;101007.30;1724444;102;29477;-65
2022/12/03 16:09:09;;;;;;;153.90;68.50;;;;;;;1.92;77.22;101010.78;1719493;102;27896;-68
2022/12/03 16:12:13;;;;;;;145.45;67.05;;;;;;;1.91;77.18;101010.34;1694358;104;33176;-64
2022/12/03 16:15:16;;;;;;;140.80;61.20;;;;;;;1.92;77.25;101008.14;1742733;100;28216;-64
2022/12/03 16:18:17;;;;;;;143.13;64.67;;;;;;;1.94;77.26;100999.34;1746286;101;28557;-65
2022/12/03 16:21:33;;;;;;;130.75;60.30;;;;;;;1.93;77.31;100998.91;1733376;100;28415;-65
2022/12/03 16:24:44;;;;;;;127.22;59.20;;;;;;;1.88;77.25;100995.39;1717115;102;30765;-65
2022/12/03 16:27:53;;;;;;;198.87;89.60;;;;;;;1.91;77.37;100990.53;1704727;102;33058;-65
2022/12/03 16:31:20;;;;;;;133.78;61.30;;;;;;;1.89;77.39;100993.19;1683187;104;28015;-65